createdAt,value
2023-04-10T00:02:55.347Z,5.50
2023-04-10T00:07:58.347Z,5.30
2023-04-10T00:13:03.615Z,6.10
2023-04-10T00:18:06.628Z,5.80
2023-04-10T00:23:09.861Z,6.10
2023-04-10T00:28:12.826Z,6.10
2023-04-10T00:33:16.044Z,6.60
2023-04-10T00:38:19.048Z,6.60
2023-04-10T00:43:22.363Z,7.00
2023-04-10T00:48:26.361Z,6.60
2023-04-10T00:53:30.043Z,7.00
2023-04-10T00:58:33.018Z,7.30
2023-04-10T01:03:37.349Z,6.60
2023-04-10T01:09:06.406Z,7.40
2023-04-10T01:14:09.274Z,6.60
2023-04-10T01:19:12.285Z,8.00
2023-04-10T01:24:24.989Z,7.60
2023-04-10T01:29:31.060Z,7.60
2023-04-10T01:34:45.151Z,7.80
2023-04-10T01:39:54.584Z,7.30
2023-04-10T01:44:58.769Z,7.80
2023-04-10T01:50:03.707Z,7.70
2023-04-10T01:55:08.839Z,7.70
2023-04-10T02:00:12.962Z,6.30
2023-04-10T02:05:16.988Z,6.40
2023-04-10T02:10:31.655Z,7.10
2023-04-10T02:15:36.630Z,6.30
2023-04-10T02:20:39.671Z,6.10
2023-04-10T02:25:42.581Z,6.30
2023-04-10T02:30:45.778Z,7.00
2023-04-10T02:35:48.819Z,6.70
2023-04-10T02:40:51.788Z,6.20
2023-04-10T02:45:55.110Z,6.80
2023-04-10T02:50:58.722Z,6.70
2023-04-10T02:56:02.638Z,7.00
2023-04-10T03:01:09.345Z,8.70
2023-04-10T03:06:12.462Z,8.00
2023-04-10T03:11:15.563Z,8.20
2023-04-10T03:16:19.076Z,8.10
2023-04-10T03:21:22.297Z,8.70
2023-04-10T03:26:25.608Z,9.00
2023-04-10T03:31:29.752Z,9.40
2023-04-10T03:36:32.748Z,8.70
2023-04-10T03:41:35.649Z,7.40
2023-04-10T03:46:38.632Z,7.60
2023-04-10T03:51:41.564Z,7.80
2023-04-10T03:56:44.463Z,8.30
2023-04-10T04:01:47.438Z,7.80
2023-04-10T04:06:50.474Z,8.40
2023-04-10T04:11:53.381Z,8.40
2023-04-10T04:16:56.346Z,9.60
2023-04-10T04:22:00.596Z,9.00
2023-04-10T04:27:03.833Z,9.30
2023-04-10T04:32:06.766Z,9.40
2023-04-10T04:37:09.761Z,10.50
2023-04-10T04:42:12.955Z,9.30
2023-04-10T04:47:15.860Z,10.10
2023-04-10T04:52:18.764Z,11.20
2023-04-10T04:57:21.877Z,10.60
2023-04-10T05:02:25.088Z,9.20
2023-04-10T05:07:28.088Z,9.30
2023-04-10T05:12:31.402Z,7.90
2023-04-10T05:17:34.480Z,7.80
2023-04-10T05:22:37.515Z,6.90
2023-04-10T05:27:40.527Z,7.80
2023-04-10T05:32:43.498Z,7.60
2023-04-10T05:37:46.437Z,6.80
2023-04-10T05:42:49.344Z,7.10
2023-04-10T05:47:52.367Z,7.80
2023-04-10T05:52:55.439Z,6.50
2023-04-10T05:57:58.469Z,5.60
2023-04-10T06:03:01.837Z,6.20
2023-04-10T06:08:05.194Z,5.80
2023-04-10T06:13:10.577Z,5.20
2023-04-10T06:18:14.171Z,5.30
2023-04-10T06:23:17.286Z,4.90
2023-04-10T06:28:20.409Z,4.80
2023-04-10T06:33:26.164Z,5.10
2023-04-10T06:38:29.753Z,6.20
2023-04-10T06:43:36.953Z,5.40
2023-04-10T06:48:39.922Z,5.10
2023-04-10T06:53:43.017Z,5.20
2023-04-10T06:58:46.121Z,5.80
2023-04-10T07:03:49.082Z,5.80
2023-04-10T07:08:52.304Z,4.90
2023-04-10T07:13:58.683Z,5.40
2023-04-10T07:19:01.744Z,4.90
2023-04-10T07:24:04.758Z,4.10
2023-04-10T07:29:08.044Z,3.80
2023-04-10T07:34:12.114Z,4.60
2023-04-10T07:39:15.093Z,3.20
2023-04-10T07:44:18.772Z,3.10
2023-04-10T07:49:21.919Z,3.30
2023-04-10T07:54:24.938Z,2.40
2023-04-10T07:59:29.055Z,2.80
2023-04-10T08:04:32.425Z,2.40
2023-04-10T08:09:35.995Z,3.00
2023-04-10T08:14:38.991Z,2.70
2023-04-10T08:19:43.378Z,3.10
2023-04-10T08:24:46.545Z,2.90
2023-04-10T08:29:52.153Z,3.20
2023-04-10T08:34:56.690Z,3.50
2023-04-10T08:40:04.706Z,3.10
2023-04-10T08:45:11.453Z,3.10
2023-04-10T08:50:18.066Z,3.10
2023-04-10T08:55:21.989Z,3.30
2023-04-10T09:00:26.081Z,3.10
2023-04-10T09:05:30.372Z,3.80
2023-04-10T09:10:33.362Z,3.40
2023-04-10T09:15:55.690Z,3.70
2023-04-10T09:21:07.303Z,3.90
2023-04-10T09:26:23.088Z,3.40
2023-04-10T09:31:29.790Z,3.50
2023-04-10T09:36:32.960Z,3.50
2023-04-10T09:41:48.026Z,3.90
2023-04-10T09:46:51.589Z,3.50
2023-04-10T09:51:54.653Z,3.50
2023-04-10T09:56:58.658Z,3.70
2023-04-10T10:02:02.737Z,3.50
2023-04-10T10:07:06.447Z,3.70
2023-04-10T10:12:11.878Z,4.10
2023-04-10T10:17:18.641Z,3.90
2023-04-10T10:22:25.918Z,3.50
2023-04-10T10:27:35.190Z,3.90
2023-04-10T10:32:38.406Z,3.90
2023-04-10T10:37:42.925Z,4.00
2023-04-10T10:43:01.932Z,3.90
2023-04-10T10:48:05.050Z,3.30
2023-04-10T10:53:08.144Z,3.50
2023-04-10T10:58:11.760Z,4.00
2023-04-10T11:03:14.811Z,3.80
2023-04-10T11:08:18.639Z,3.80
2023-04-10T11:13:21.990Z,3.80
2023-04-10T11:18:51.156Z,3.90
2023-04-10T11:23:59.572Z,3.60
2023-04-10T11:29:03.467Z,3.80
2023-04-10T11:34:15.896Z,3.30
2023-04-10T11:39:20.545Z,3.30
2023-04-10T11:44:39.727Z,3.70
2023-04-10T11:49:42.936Z,3.40
2023-04-10T11:54:49.523Z,3.50
2023-04-10T11:59:52.631Z,3.90
2023-04-10T12:04:59.568Z,3.90
2023-04-10T12:10:02.665Z,3.30
2023-04-10T12:15:29.141Z,3.40
2023-04-10T12:20:32.306Z,3.40
2023-04-10T12:25:35.725Z,3.30
2023-04-10T12:30:45.999Z,3.10
2023-04-10T12:40:59.376Z,3.20
2023-04-10T12:46:03.558Z,3.20
2023-04-10T12:51:07.252Z,2.90
2023-04-10T12:56:10.253Z,3.40
2023-04-10T13:01:14.953Z,3.30
2023-04-10T13:06:18.323Z,3.00
2023-04-10T13:11:22.857Z,3.40
2023-04-10T13:16:26.113Z,3.50
2023-04-10T13:21:29.792Z,3.30
2023-04-10T13:26:32.798Z,3.40
2023-04-10T13:31:35.956Z,3.60
2023-04-10T13:36:39.285Z,3.30
2023-04-10T13:41:42.326Z,3.20
2023-04-10T13:46:45.455Z,3.10
2023-04-10T13:51:48.583Z,2.90
2023-04-10T13:56:51.663Z,3.10
2023-04-10T14:01:54.663Z,3.20
2023-04-10T14:07:00.641Z,3.10
2023-04-10T14:12:03.854Z,2.90
2023-04-10T14:17:06.961Z,2.70
2023-04-10T14:22:09.867Z,2.60
2023-04-10T14:27:13.604Z,2.80
2023-04-10T14:32:16.726Z,2.60
2023-04-10T14:37:19.804Z,3.10
2023-04-10T14:42:23.908Z,3.40
2023-04-10T14:47:27.084Z,3.30
2023-04-10T14:52:30.254Z,3.40
2023-04-10T14:57:33.160Z,3.00
2023-04-10T15:02:36.274Z,2.60
2023-04-10T15:07:39.589Z,2.60
2023-04-10T15:12:43.012Z,2.90
2023-04-10T15:17:46.176Z,2.80
2023-04-10T15:22:49.112Z,3.10
2023-04-10T15:27:52.023Z,2.60
2023-04-10T15:32:55.049Z,2.80
2023-04-10T15:37:58.240Z,2.60
2023-04-10T15:43:01.244Z,2.80
2023-04-10T15:48:05.230Z,2.90
2023-04-10T15:53:08.275Z,3.10
2023-04-10T15:58:11.390Z,3.10
2023-04-10T16:03:14.674Z,2.60
2023-04-10T16:08:18.016Z,2.80
2023-04-10T16:13:21.134Z,3.10
2023-04-10T16:18:24.349Z,3.20
2023-04-10T16:23:27.342Z,2.80
2023-04-10T16:28:30.252Z,2.80
2023-04-10T16:33:33.352Z,2.90
2023-04-10T16:38:36.459Z,3.30
2023-04-10T16:43:39.671Z,3.30
2023-04-10T16:48:42.576Z,3.50
2023-04-10T16:53:45.582Z,3.10
2023-04-10T16:58:48.740Z,3.00
2023-04-10T17:03:52.060Z,3.00
2023-04-10T17:08:55.351Z,3.50
2023-04-10T17:13:58.549Z,3.30
2023-04-10T17:19:01.755Z,3.50
2023-04-10T17:24:04.871Z,3.90
2023-04-10T17:29:07.978Z,4.90
2023-04-10T17:34:11.086Z,5.90
2023-04-10T17:39:14.077Z,6.30
2023-04-10T17:44:17.062Z,8.10
2023-04-10T17:49:21.919Z,10.00
2023-04-10T17:54:25.261Z,10.00
2023-04-10T17:59:31.219Z,14.50
2023-04-10T18:04:34.543Z,15.20
2023-04-10T18:09:37.989Z,12.50
2023-04-10T18:14:42.706Z,9.60
2023-04-10T18:19:45.910Z,7.90
2023-04-10T18:24:49.580Z,6.40
2023-04-10T18:29:57.642Z,5.40
2023-04-10T18:35:00.685Z,4.90
2023-04-10T18:40:15.512Z,4.60
2023-04-10T18:45:20.619Z,4.00
2023-04-10T18:50:23.622Z,4.20
2023-04-10T18:55:26.547Z,5.40
2023-04-10T19:00:29.632Z,4.40
2023-04-10T19:05:32.948Z,4.20
2023-04-10T19:10:37.719Z,3.80
2023-04-10T19:15:42.361Z,4.20
2023-04-10T19:20:48.844Z,4.10
2023-04-10T19:25:54.931Z,4.00
2023-04-10T19:30:58.354Z,3.10
2023-04-10T19:36:01.338Z,3.40
2023-04-10T19:41:13.629Z,4.00
2023-04-10T19:46:18.184Z,3.80
2023-04-10T19:51:21.629Z,4.30
2023-04-10T19:56:25.458Z,4.10
2023-04-10T20:01:28.590Z,4.20
2023-04-10T20:06:32.109Z,4.40
2023-04-10T20:11:35.169Z,5.30
2023-04-10T20:16:39.256Z,4.90
2023-04-10T20:21:42.322Z,5.00
2023-04-10T20:26:45.895Z,5.80
2023-04-10T20:31:49.044Z,5.90
2023-04-10T20:36:52.049Z,6.20
2023-04-10T20:41:55.050Z,9.50
2023-04-10T20:46:57.962Z,7.40
2023-04-10T20:52:01.059Z,6.30
2023-04-10T20:57:06.141Z,5.60
2023-04-10T21:02:09.223Z,6.40
2023-04-10T21:07:12.345Z,6.70
2023-04-10T21:12:15.342Z,6.10
2023-04-10T21:17:19.458Z,6.20
2023-04-10T21:22:22.691Z,8.80
2023-04-10T21:27:25.692Z,11.20
2023-04-10T21:32:30.040Z,8.20
2023-04-10T21:37:33.041Z,8.00
2023-04-10T21:42:39.584Z,6.20
2023-04-10T21:47:42.561Z,6.00
2023-04-10T21:52:45.754Z,6.40
2023-04-10T21:57:48.753Z,6.00
2023-04-10T22:02:52.023Z,6.40
2023-04-10T22:07:55.487Z,6.10
2023-04-10T22:12:58.584Z,6.80
2023-04-10T22:18:01.587Z,6.90
2023-04-10T22:23:05.119Z,6.30
2023-04-10T22:28:08.118Z,6.30
2023-04-10T22:33:12.158Z,6.60
2023-04-10T22:38:15.635Z,6.80
2023-04-10T22:43:18.581Z,7.30
2023-04-10T22:48:21.662Z,6.40
2023-04-10T22:53:24.791Z,7.10
2023-04-10T22:58:27.897Z,7.20
2023-04-10T23:03:30.909Z,7.00
2023-04-10T23:08:33.952Z,6.60
2023-04-10T23:13:36.814Z,7.00
2023-04-10T23:18:39.721Z,7.20
2023-04-10T23:23:42.834Z,6.40
2023-04-10T23:28:45.741Z,8.30
2023-04-10T23:33:48.861Z,6.70
2023-04-10T23:38:52.067Z,8.50
2023-04-10T23:43:55.168Z,8.60
2023-04-10T23:48:58.285Z,7.80
2023-04-10T23:54:01.280Z,7.60
2023-04-10T23:59:04.499Z,7.90
